sensor_id;sensor_type;location;lat;lon;timestamp;P1;durP1;ratioP1;P2;durP2;ratioP2
62353;SDS011;48391;49.184;2.418;2023-07-20T00:02:21;1.30;;;0.30;;
62353;SDS011;48391;49.184;2.418;2023-07-20T00:04:47;0.10;;;0.10;;
62353;SDS011;48391;49.184;2.418;2023-07-20T00:07:13;0.25;;;0.25;;
62353;SDS011;48391;49.184;2.418;2023-07-20T00:09:39;0.50;;;0.38;;
62353;SDS011;48391;49.184;2.418;2023-07-20T00:12:06;0.10;;;0.10;;
62353;SDS011;48391;49.184;2.418;2023-07-20T00:14:32;0.50;;;0.10;;
62353;SDS011;48391;49.184;2.418;2023-07-20T00:16:59;0.50;;;0.10;;
62353;SDS011;48391;49.184;2.418;2023-07-20T00:19:25;0.30;;;0.10;;
62353;SDS011;48391;49.184;2.418;2023-07-20T00:21:52;0.20;;;0.10;;
62353;SDS011;48391;49.184;2.418;2023-07-20T00:24:20;0.45;;;0.10;;
62353;SDS011;48391;49.184;2.418;2023-07-20T00:26:46;0.10;;;0.10;;
62353;SDS011;48391;49.184;2.418;2023-07-20T00:29:13;0.15;;;0.00;;
62353;SDS011;48391;49.184;2.418;2023-07-20T00:31:39;0.10;;;0.10;;
62353;SDS011;48391;49.184;2.418;2023-07-20T00:34:05;0.10;;;0.10;;
62353;SDS011;48391;49.184;2.418;2023-07-20T00:36:32;0.63;;;0.10;;
62353;SDS011;48391;49.184;2.418;2023-07-20T00:38:58;0.75;;;0.75;;
62353;SDS011;48391;49.184;2.418;2023-07-20T00:41:24;0.30;;;0.10;;
62353;SDS011;48391;49.184;2.418;2023-07-20T00:43:54;0.20;;;0.17;;
62353;SDS011;48391;49.184;2.418;2023-07-20T00:46:22;1.17;;;0.40;;
62353;SDS011;48391;49.184;2.418;2023-07-20T05:06:07;0.70;;;0.40;;
62353;SDS011;48391;49.184;2.418;2023-07-20T05:08:33;0.10;;;0.10;;
62353;SDS011;48391;49.184;2.418;2023-07-20T05:10:59;0.25;;;0.25;;
62353;SDS011;48391;49.184;2.418;2023-07-20T05:13:26;0.40;;;0.40;;
62353;SDS011;48391;49.184;2.418;2023-07-20T05:15:52;0.55;;;0.40;;
62353;SDS011;48391;49.184;2.418;2023-07-20T05:18:18;0.40;;;0.40;;
62353;SDS011;48391;49.184;2.418;2023-07-20T05:20:48;0.30;;;0.17;;
62353;SDS011;48391;49.184;2.418;2023-07-20T05:23:18;0.32;;;0.32;;
62353;SDS011;48391;49.184;2.418;2023-07-20T05:25:56;0.80;;;0.35;;
62353;SDS011;48391;49.184;2.418;2023-07-20T05:28:24;0.47;;;0.32;;
62353;SDS011;48391;49.184;2.418;2023-07-20T05:30:51;2.08;;;1.13;;
62353;SDS011;48391;49.184;2.418;2023-07-20T05:33:18;0.47;;;0.40;;
62353;SDS011;48391;49.184;2.418;2023-07-20T05:35:45;0.60;;;0.60;;
62353;SDS011;48391;49.184;2.418;2023-07-20T05:38:11;1.75;;;0.60;;
62353;SDS011;48391;49.184;2.418;2023-07-20T05:40:39;1.25;;;0.73;;
62353;SDS011;48391;49.184;2.418;2023-07-20T05:43:07;1.00;;;0.60;;
62353;SDS011;48391;49.184;2.418;2023-07-20T05:45:34;0.50;;;0.50;;
62353;SDS011;48391;49.184;2.418;2023-07-20T05:48:00;1.02;;;0.75;;
62353;SDS011;48391;49.184;2.418;2023-07-20T05:50:26;0.77;;;0.77;;
62353;SDS011;48391;49.184;2.418;2023-07-20T05:52:53;1.40;;;0.60;;
62353;SDS011;48391;49.184;2.418;2023-07-20T05:55:19;0.68;;;0.65;;
62353;SDS011;48391;49.184;2.418;2023-07-20T05:57:46;1.50;;;1.00;;
62353;SDS011;48391;49.184;2.418;2023-07-20T06:00:13;1.40;;;1.27;;
62353;SDS011;48391;49.184;2.418;2023-07-20T06:02:40;1.45;;;1.35;;
62353;SDS011;48391;49.184;2.418;2023-07-20T06:05:06;0.85;;;0.85;;
62353;SDS011;48391;49.184;2.418;2023-07-20T06:07:36;1.58;;;1.48;;
62353;SDS011;48391;49.184;2.418;2023-07-20T06:10:02;2.25;;;1.75;;
62353;SDS011;48391;49.184;2.418;2023-07-20T06:12:30;1.40;;;1.20;;
62353;SDS011;48391;49.184;2.418;2023-07-20T06:14:57;2.45;;;2.00;;
62353;SDS011;48391;49.184;2.418;2023-07-20T06:17:27;1.95;;;1.75;;
62353;SDS011;48391;49.184;2.418;2023-07-20T06:19:54;5.95;;;3.47;;
62353;SDS011;48391;49.184;2.418;2023-07-20T06:22:20;3.17;;;2.88;;
62353;SDS011;48391;49.184;2.418;2023-07-20T06:24:46;3.17;;;2.10;;
62353;SDS011;48391;49.184;2.418;2023-07-20T06:27:12;4.03;;;2.72;;
62353;SDS011;48391;49.184;2.418;2023-07-20T06:29:38;3.40;;;2.28;;
62353;SDS011;48391;49.184;2.418;2023-07-20T06:32:05;2.30;;;2.10;;
62353;SDS011;48391;49.184;2.418;2023-07-20T06:34:32;2.42;;;2.10;;
62353;SDS011;48391;49.184;2.418;2023-07-20T06:37:02;5.53;;;4.07;;
62353;SDS011;48391;49.184;2.418;2023-07-20T06:39:29;3.50;;;3.20;;
62353;SDS011;48391;49.184;2.418;2023-07-20T06:41:55;4.50;;;3.00;;
62353;SDS011;48391;49.184;2.418;2023-07-20T06:44:22;4.63;;;2.58;;
62353;SDS011;48391;49.184;2.418;2023-07-20T06:46:48;5.45;;;3.17;;
62353;SDS011;48391;49.184;2.418;2023-07-20T06:49:27;5.03;;;3.78;;
62353;SDS011;48391;49.184;2.418;2023-07-20T06:51:53;5.10;;;3.30;;
62353;SDS011;48391;49.184;2.418;2023-07-20T06:56:35;3.70;;;2.22;;
62353;SDS011;48391;49.184;2.418;2023-07-20T06:59:01;3.33;;;2.25;;
62353;SDS011;48391;49.184;2.418;2023-07-20T07:01:27;4.47;;;2.72;;
62353;SDS011;48391;49.184;2.418;2023-07-20T07:03:53;4.25;;;3.15;;
62353;SDS011;48391;49.184;2.418;2023-07-20T07:06:20;2.80;;;2.22;;
62353;SDS011;48391;49.184;2.418;2023-07-20T07:08:47;4.22;;;3.65;;
62353;SDS011;48391;49.184;2.418;2023-07-20T07:11:13;2.63;;;2.42;;
62353;SDS011;48391;49.184;2.418;2023-07-20T07:13:40;4.13;;;3.53;;
62353;SDS011;48391;49.184;2.418;2023-07-20T07:16:06;3.65;;;2.83;;
62353;SDS011;48391;49.184;2.418;2023-07-20T07:18:32;3.13;;;2.85;;
62353;SDS011;48391;49.184;2.418;2023-07-20T07:20:58;4.95;;;2.60;;
62353;SDS011;48391;49.184;2.418;2023-07-20T07:23:24;2.80;;;2.10;;
62353;SDS011;48391;49.184;2.418;2023-07-20T07:25:50;3.28;;;2.42;;
62353;SDS011;48391;49.184;2.418;2023-07-20T07:28:17;2.45;;;2.13;;
62353;SDS011;48391;49.184;2.418;2023-07-20T07:30:43;2.65;;;1.83;;
62353;SDS011;48391;49.184;2.418;2023-07-20T07:33:09;4.63;;;2.88;;
62353;SDS011;48391;49.184;2.418;2023-07-20T07:35:35;3.33;;;2.88;;
62353;SDS011;48391;49.184;2.418;2023-07-20T07:38:02;3.78;;;3.38;;
62353;SDS011;48391;49.184;2.418;2023-07-20T07:40:28;3.92;;;3.20;;
62353;SDS011;48391;49.184;2.418;2023-07-20T07:42:54;3.70;;;3.25;;
62353;SDS011;48391;49.184;2.418;2023-07-20T07:45:20;2.20;;;2.00;;
62353;SDS011;48391;49.184;2.418;2023-07-20T07:47:46;2.00;;;1.83;;
62353;SDS011;48391;49.184;2.418;2023-07-20T07:50:13;4.43;;;2.58;;
62353;SDS011;48391;49.184;2.418;2023-07-20T07:52:39;2.80;;;2.00;;
62353;SDS011;48391;49.184;2.418;2023-07-20T07:55:05;2.33;;;2.13;;
62353;SDS011;48391;49.184;2.418;2023-07-20T07:57:31;3.83;;;2.80;;
62353;SDS011;48391;49.184;2.418;2023-07-20T07:59:58;2.90;;;2.58;;
62353;SDS011;48391;49.184;2.418;2023-07-20T08:02:24;1.90;;;1.80;;
62353;SDS011;48391;49.184;2.418;2023-07-20T08:04:50;2.45;;;1.80;;
62353;SDS011;48391;49.184;2.418;2023-07-20T08:07:17;2.75;;;2.55;;
62353;SDS011;48391;49.184;2.418;2023-07-20T08:09:43;2.97;;;2.42;;
62353;SDS011;48391;49.184;2.418;2023-07-20T08:12:09;2.42;;;2.17;;
62353;SDS011;48391;49.184;2.418;2023-07-20T08:14:35;2.10;;;1.92;;
62353;SDS011;48391;49.184;2.418;2023-07-20T08:17:02;3.50;;;3.00;;
62353;SDS011;48391;49.184;2.418;2023-07-20T08:19:28;1.75;;;1.65;;
62353;SDS011;48391;49.184;2.418;2023-07-20T08:21:54;3.95;;;2.33;;
62353;SDS011;48391;49.184;2.418;2023-07-20T08:24:21;1.92;;;1.83;;
62353;SDS011;48391;49.184;2.418;2023-07-20T08:26:47;1.70;;;1.30;;
62353;SDS011;48391;49.184;2.418;2023-07-20T08:29:13;2.83;;;1.50;;
62353;SDS011;48391;49.184;2.418;2023-07-20T08:31:39;1.45;;;1.38;;
62353;SDS011;48391;49.184;2.418;2023-07-20T08:34:05;1.50;;;1.40;;
62353;SDS011;48391;49.184;2.418;2023-07-20T08:36:31;1.35;;;1.25;;
62353;SDS011;48391;49.184;2.418;2023-07-20T08:38:58;2.10;;;1.50;;
62353;SDS011;48391;49.184;2.418;2023-07-20T08:41:24;1.45;;;1.33;;
62353;SDS011;48391;49.184;2.418;2023-07-20T08:43:50;3.15;;;2.05;;
62353;SDS011;48391;49.184;2.418;2023-07-20T08:46:20;1.33;;;1.15;;
62353;SDS011;48391;49.184;2.418;2023-07-20T08:48:48;1.98;;;1.88;;
62353;SDS011;48391;49.184;2.418;2023-07-20T08:51:15;2.78;;;2.13;;
62353;SDS011;48391;49.184;2.418;2023-07-20T08:53:43;1.55;;;1.38;;
62353;SDS011;48391;49.184;2.418;2023-07-20T08:56:11;6.15;;;1.92;;
62353;SDS011;48391;49.184;2.418;2023-07-20T08:58:39;2.72;;;1.70;;
62353;SDS011;48391;49.184;2.418;2023-07-20T09:01:08;1.48;;;1.38;;
62353;SDS011;48391;49.184;2.418;2023-07-20T09:03:35;1.77;;;1.67;;
62353;SDS011;48391;49.184;2.418;2023-07-20T09:06:05;1.55;;;1.45;;
62353;SDS011;48391;49.184;2.418;2023-07-20T09:08:31;1.17;;;1.08;;
62353;SDS011;48391;49.184;2.418;2023-07-20T09:10:57;1.33;;;1.10;;
62353;SDS011;48391;49.184;2.418;2023-07-20T09:13:25;2.10;;;1.85;;
62353;SDS011;48391;49.184;2.418;2023-07-20T09:15:54;1.10;;;1.00;;
62353;SDS011;48391;49.184;2.418;2023-07-20T09:18:32;1.40;;;1.33;;
62353;SDS011;48391;49.184;2.418;2023-07-20T09:21:02;1.67;;;1.58;;
62353;SDS011;48391;49.184;2.418;2023-07-20T09:23:35;1.83;;;1.23;;
62353;SDS011;48391;49.184;2.418;2023-07-20T09:26:11;2.10;;;1.48;;
62353;SDS011;48391;49.184;2.418;2023-07-20T09:28:42;1.67;;;1.38;;
62353;SDS011;48391;49.184;2.418;2023-07-20T09:31:16;2.20;;;1.48;;
62353;SDS011;48391;49.184;2.418;2023-07-20T09:33:46;1.65;;;1.40;;
62353;SDS011;48391;49.184;2.418;2023-07-20T09:36:13;2.42;;;1.48;;
62353;SDS011;48391;49.184;2.418;2023-07-20T09:38:41;0.77;;;0.77;;
62353;SDS011;48391;49.184;2.418;2023-07-20T09:41:08;1.30;;;0.82;;
62353;SDS011;48391;49.184;2.418;2023-07-20T09:43:40;1.10;;;0.93;;
62353;SDS011;48391;49.184;2.418;2023-07-20T09:46:07;1.50;;;0.90;;
62353;SDS011;48391;49.184;2.418;2023-07-20T09:48:33;1.13;;;1.02;;
62353;SDS011;48391;49.184;2.418;2023-07-20T09:51:00;1.30;;;0.77;;
62353;SDS011;48391;49.184;2.418;2023-07-20T09:53:26;1.05;;;1.00;;
62353;SDS011;48391;49.184;2.418;2023-07-20T09:55:53;1.08;;;1.02;;
62353;SDS011;48391;49.184;2.418;2023-07-20T09:58:21;1.13;;;0.85;;
62353;SDS011;48391;49.184;2.418;2023-07-20T10:00:48;1.35;;;0.95;;
62353;SDS011;48391;49.184;2.418;2023-07-20T10:03:20;1.63;;;1.25;;
62353;SDS011;48391;49.184;2.418;2023-07-20T10:05:58;0.98;;;0.90;;
62353;SDS011;48391;49.184;2.418;2023-07-20T10:08:29;0.63;;;0.50;;
62353;SDS011;48391;49.184;2.418;2023-07-20T10:10:57;1.15;;;1.05;;
62353;SDS011;48391;49.184;2.418;2023-07-20T10:13:27;1.02;;;0.90;;
62353;SDS011;48391;49.184;2.418;2023-07-20T10:15:59;0.65;;;0.63;;
62353;SDS011;48391;49.184;2.418;2023-07-20T10:18:31;0.73;;;0.60;;
62353;SDS011;48391;49.184;2.418;2023-07-20T10:21:06;0.45;;;0.30;;
62353;SDS011;48391;49.184;2.418;2023-07-20T10:23:34;0.75;;;0.38;;
62353;SDS011;48391;49.184;2.418;2023-07-20T10:26:02;0.75;;;0.60;;
62353;SDS011;48391;49.184;2.418;2023-07-20T10:28:28;0.60;;;0.40;;
62353;SDS011;48391;49.184;2.418;2023-07-20T10:30:54;0.10;;;0.10;;
62353;SDS011;48391;49.184;2.418;2023-07-20T10:35:58;0.82;;;0.20;;
62353;SDS011;48391;49.184;2.418;2023-07-20T10:38:52;0.35;;;0.10;;
62353;SDS011;48391;49.184;2.418;2023-07-20T10:43:47;0.20;;;0.13;;
62353;SDS011;48391;49.184;2.418;2023-07-20T10:46:14;0.00;;;0.00;;
62353;SDS011;48391;49.184;2.418;2023-07-20T10:49:02;0.22;;;0.22;;
62353;SDS011;48391;49.184;2.418;2023-07-20T10:51:29;0.50;;;0.22;;
62353;SDS011;48391;49.184;2.418;2023-07-20T10:54:07;1.20;;;0.20;;
62353;SDS011;48391;49.184;2.418;2023-07-20T10:56:44;0.50;;;0.25;;
62353;SDS011;48391;49.184;2.418;2023-07-20T11:02:00;0.22;;;0.22;;
62353;SDS011;48391;49.184;2.418;2023-07-20T11:04:41;0.28;;;0.10;;
62353;SDS011;48391;49.184;2.418;2023-07-20T11:07:09;4.80;;;0.68;;
62353;SDS011;48391;49.184;2.418;2023-07-20T11:09:35;0.40;;;0.20;;
62353;SDS011;48391;49.184;2.418;2023-07-20T11:12:09;0.17;;;0.17;;
62353;SDS011;48391;49.184;2.418;2023-07-20T11:14:36;0.20;;;0.10;;
62353;SDS011;48391;49.184;2.418;2023-07-20T11:17:18;0.60;;;0.22;;
62353;SDS011;48391;49.184;2.418;2023-07-20T11:19:50;0.22;;;0.20;;
62353;SDS011;48391;49.184;2.418;2023-07-20T11:22:30;0.57;;;0.20;;
62353;SDS011;48391;49.184;2.418;2023-07-20T11:24:57;1.08;;;0.35;;
62353;SDS011;48391;49.184;2.418;2023-07-20T11:27:23;0.25;;;0.22;;
62353;SDS011;48391;49.184;2.418;2023-07-20T11:29:50;0.35;;;0.32;;
62353;SDS011;48391;49.184;2.418;2023-07-20T11:32:22;1.13;;;0.40;;
62353;SDS011;48391;49.184;2.418;2023-07-20T11:34:49;0.38;;;0.20;;
62353;SDS011;48391;49.184;2.418;2023-07-20T11:37:16;0.30;;;0.30;;
62353;SDS011;48391;49.184;2.418;2023-07-20T11:39:43;0.73;;;0.30;;
62353;SDS011;48391;49.184;2.418;2023-07-20T11:42:09;0.55;;;0.20;;
62353;SDS011;48391;49.184;2.418;2023-07-20T11:44:36;0.20;;;0.10;;
62353;SDS011;48391;49.184;2.418;2023-07-20T11:47:04;0.28;;;0.28;;
62353;SDS011;48391;49.184;2.418;2023-07-20T11:49:35;0.32;;;0.30;;
62353;SDS011;48391;49.184;2.418;2023-07-20T11:52:09;2.40;;;0.50;;
62353;SDS011;48391;49.184;2.418;2023-07-20T11:54:39;0.10;;;0.10;;
62353;SDS011;48391;49.184;2.418;2023-07-20T11:57:06;0.10;;;0.10;;
62353;SDS011;48391;49.184;2.418;2023-07-20T11:59:32;0.25;;;0.20;;
62353;SDS011;48391;49.184;2.418;2023-07-20T12:02:02;0.43;;;0.28;;
62353;SDS011;48391;49.184;2.418;2023-07-20T12:04:28;0.40;;;0.17;;
62353;SDS011;48391;49.184;2.418;2023-07-20T12:06:56;0.73;;;0.20;;
62353;SDS011;48391;49.184;2.418;2023-07-20T12:09:22;1.23;;;0.32;;
62353;SDS011;48391;49.184;2.418;2023-07-20T12:11:49;0.00;;;0.00;;
62353;SDS011;48391;49.184;2.418;2023-07-20T12:14:16;0.35;;;0.20;;
62353;SDS011;48391;49.184;2.418;2023-07-20T12:16:42;0.28;;;0.28;;
62353;SDS011;48391;49.184;2.418;2023-07-20T12:19:09;0.15;;;0.00;;
62353;SDS011;48391;49.184;2.418;2023-07-20T12:21:39;0.25;;;0.20;;
62353;SDS011;48391;49.184;2.418;2023-07-20T12:24:07;0.20;;;0.15;;
62353;SDS011;48391;49.184;2.418;2023-07-20T12:26:35;0.10;;;0.10;;
62353;SDS011;48391;49.184;2.418;2023-07-20T12:29:01;0.00;;;0.00;;
62353;SDS011;48391;49.184;2.418;2023-07-20T12:31:28;0.20;;;0.20;;
62353;SDS011;48391;49.184;2.418;2023-07-20T12:33:56;3.30;;;0.15;;
62353;SDS011;48391;49.184;2.418;2023-07-20T12:36:23;0.10;;;0.00;;
62353;SDS011;48391;49.184;2.418;2023-07-20T12:38:50;0.50;;;0.17;;
62353;SDS011;48391;49.184;2.418;2023-07-20T12:41:16;1.38;;;0.32;;
62353;SDS011;48391;49.184;2.418;2023-07-20T12:43:43;0.10;;;0.10;;
62353;SDS011;48391;49.184;2.418;2023-07-20T12:46:10;0.10;;;0.10;;
62353;SDS011;48391;49.184;2.418;2023-07-20T12:48:38;0.55;;;0.10;;
62353;SDS011;48391;49.184;2.418;2023-07-20T12:51:06;0.15;;;0.10;;
62353;SDS011;48391;49.184;2.418;2023-07-20T12:53:33;0.20;;;0.20;;
62353;SDS011;48391;49.184;2.418;2023-07-20T12:55:59;1.85;;;0.47;;
62353;SDS011;48391;49.184;2.418;2023-07-20T12:58:26;0.10;;;0.10;;
62353;SDS011;48391;49.184;2.418;2023-07-20T13:00:52;0.00;;;0.00;;
62353;SDS011;48391;49.184;2.418;2023-07-20T13:03:18;0.22;;;0.13;;
62353;SDS011;48391;49.184;2.418;2023-07-20T13:05:45;0.40;;;0.20;;
62353;SDS011;48391;49.184;2.418;2023-07-20T13:08:12;0.20;;;0.20;;
62353;SDS011;48391;49.184;2.418;2023-07-20T13:10:38;0.20;;;0.20;;
62353;SDS011;48391;49.184;2.418;2023-07-20T13:13:05;0.20;;;0.10;;
62353;SDS011;48391;49.184;2.418;2023-07-20T13:15:32;0.20;;;0.20;;
62353;SDS011;48391;49.184;2.418;2023-07-20T13:18:06;0.30;;;0.30;;
62353;SDS011;48391;49.184;2.418;2023-07-20T13:20:32;0.20;;;0.20;;
62353;SDS011;48391;49.184;2.418;2023-07-20T13:22:58;0.20;;;0.00;;
62353;SDS011;48391;49.184;2.418;2023-07-20T13:25:25;0.77;;;0.32;;
62353;SDS011;48391;49.184;2.418;2023-07-20T13:27:52;0.32;;;0.10;;
62353;SDS011;48391;49.184;2.418;2023-07-20T13:30:18;0.43;;;0.20;;
62353;SDS011;48391;49.184;2.418;2023-07-20T13:32:46;0.43;;;0.10;;
62353;SDS011;48391;49.184;2.418;2023-07-20T13:35:12;0.50;;;0.20;;
62353;SDS011;48391;49.184;2.418;2023-07-20T13:37:39;0.20;;;0.20;;
62353;SDS011;48391;49.184;2.418;2023-07-20T13:40:06;0.08;;;0.05;;
62353;SDS011;48391;49.184;2.418;2023-07-20T13:42:38;0.03;;;0.03;;
62353;SDS011;48391;49.184;2.418;2023-07-20T13:45:05;0.22;;;0.22;;
62353;SDS011;48391;49.184;2.418;2023-07-20T13:47:32;0.20;;;0.10;;
62353;SDS011;48391;49.184;2.418;2023-07-20T13:49:58;0.25;;;0.15;;
62353;SDS011;48391;49.184;2.418;2023-07-20T13:52:25;0.30;;;0.30;;
62353;SDS011;48391;49.184;2.418;2023-07-20T13:54:51;0.17;;;0.10;;
62353;SDS011;48391;49.184;2.418;2023-07-20T13:57:17;0.20;;;0.10;;
62353;SDS011;48391;49.184;2.418;2023-07-20T13:59:43;0.10;;;0.00;;
62353;SDS011;48391;49.184;2.418;2023-07-20T14:02:10;0.10;;;0.08;;
62353;SDS011;48391;49.184;2.418;2023-07-20T14:04:36;0.30;;;0.30;;
62353;SDS011;48391;49.184;2.418;2023-07-20T14:07:04;0.60;;;0.13;;
62353;SDS011;48391;49.184;2.418;2023-07-20T14:09:31;0.20;;;0.13;;
62353;SDS011;48391;49.184;2.418;2023-07-20T14:11:57;0.52;;;0.30;;
62353;SDS011;48391;49.184;2.418;2023-07-20T14:14:23;0.20;;;0.20;;
62353;SDS011;48391;49.184;2.418;2023-07-20T14:16:50;0.85;;;0.20;;
62353;SDS011;48391;49.184;2.418;2023-07-20T14:19:16;3.03;;;0.32;;
62353;SDS011;48391;49.184;2.418;2023-07-20T14:21:42;0.30;;;0.20;;
62353;SDS011;48391;49.184;2.418;2023-07-20T14:24:09;0.22;;;0.22;;
62353;SDS011;48391;49.184;2.418;2023-07-20T14:26:35;0.20;;;0.13;;
62353;SDS011;48391;49.184;2.418;2023-07-20T14:29:01;0.20;;;0.20;;
62353;SDS011;48391;49.184;2.418;2023-07-20T14:31:27;0.10;;;0.10;;
62353;SDS011;48391;49.184;2.418;2023-07-20T14:33:53;0.40;;;0.10;;
62353;SDS011;48391;49.184;2.418;2023-07-20T14:36:19;0.77;;;0.15;;
62353;SDS011;48391;49.184;2.418;2023-07-20T14:38:46;0.93;;;0.57;;
62353;SDS011;48391;49.184;2.418;2023-07-20T14:41:12;0.32;;;0.10;;
62353;SDS011;48391;49.184;2.418;2023-07-20T14:43:38;0.90;;;0.20;;
62353;SDS011;48391;49.184;2.418;2023-07-20T14:46:04;10.65;;;0.57;;
62353;SDS011;48391;49.184;2.418;2023-07-20T14:48:31;0.20;;;0.20;;
62353;SDS011;48391;49.184;2.418;2023-07-20T14:50:57;0.32;;;0.25;;
62353;SDS011;48391;49.184;2.418;2023-07-20T14:53:23;0.10;;;0.10;;
62353;SDS011;48391;49.184;2.418;2023-07-20T14:55:53;0.10;;;0.00;;
62353;SDS011;48391;49.184;2.418;2023-07-20T14:58:25;0.20;;;0.20;;
62353;SDS011;48391;49.184;2.418;2023-07-20T15:00:51;0.00;;;0.00;;
62353;SDS011;48391;49.184;2.418;2023-07-20T15:03:17;0.17;;;0.10;;
62353;SDS011;48391;49.184;2.418;2023-07-20T15:05:43;0.30;;;0.15;;
62353;SDS011;48391;49.184;2.418;2023-07-20T15:08:09;0.40;;;0.15;;
62353;SDS011;48391;49.184;2.418;2023-07-20T15:10:35;0.05;;;0.03;;
62353;SDS011;48391;49.184;2.418;2023-07-20T15:13:01;0.05;;;0.05;;
62353;SDS011;48391;49.184;2.418;2023-07-20T15:15:28;0.22;;;0.22;;
62353;SDS011;48391;49.184;2.418;2023-07-20T15:17:54;0.43;;;0.43;;
62353;SDS011;48391;49.184;2.418;2023-07-20T15:20:20;0.20;;;0.20;;
62353;SDS011;48391;49.184;2.418;2023-07-20T15:22:46;0.40;;;0.00;;
62353;SDS011;48391;49.184;2.418;2023-07-20T15:25:12;0.10;;;0.05;;
62353;SDS011;48391;49.184;2.418;2023-07-20T15:27:39;0.00;;;0.00;;
62353;SDS011;48391;49.184;2.418;2023-07-20T15:30:08;0.00;;;0.00;;
62353;SDS011;48391;49.184;2.418;2023-07-20T15:32:34;0.65;;;0.10;;
62353;SDS011;48391;49.184;2.418;2023-07-20T15:35:00;0.30;;;0.10;;
62353;SDS011;48391;49.184;2.418;2023-07-20T15:37:28;0.22;;;0.10;;
62353;SDS011;48391;49.184;2.418;2023-07-20T15:39:55;0.40;;;0.20;;
62353;SDS011;48391;49.184;2.418;2023-07-20T15:42:21;0.22;;;0.20;;
62353;SDS011;48391;49.184;2.418;2023-07-20T15:44:47;0.10;;;0.10;;
62353;SDS011;48391;49.184;2.418;2023-07-20T15:47:14;0.93;;;0.30;;
62353;SDS011;48391;49.184;2.418;2023-07-20T15:49:40;0.20;;;0.20;;
62353;SDS011;48391;49.184;2.418;2023-07-20T15:52:06;0.47;;;0.10;;
62353;SDS011;48391;49.184;2.418;2023-07-20T15:54:32;0.10;;;0.10;;
62353;SDS011;48391;49.184;2.418;2023-07-20T15:56:59;0.40;;;0.20;;
62353;SDS011;48391;49.184;2.418;2023-07-20T15:59:25;0.15;;;0.15;;
62353;SDS011;48391;49.184;2.418;2023-07-20T16:01:51;0.55;;;0.20;;
62353;SDS011;48391;49.184;2.418;2023-07-20T16:04:17;0.10;;;0.10;;
62353;SDS011;48391;49.184;2.418;2023-07-20T16:06:43;0.08;;;0.00;;
62353;SDS011;48391;49.184;2.418;2023-07-20T16:09:10;0.20;;;0.10;;
62353;SDS011;48391;49.184;2.418;2023-07-20T16:11:36;0.38;;;0.10;;
62353;SDS011;48391;49.184;2.418;2023-07-20T16:14:02;0.63;;;0.30;;
62353;SDS011;48391;49.184;2.418;2023-07-20T16:16:30;1.55;;;0.43;;
62353;SDS011;48391;49.184;2.418;2023-07-20T16:18:59;0.35;;;0.10;;
62353;SDS011;48391;49.184;2.418;2023-07-20T16:21:25;0.10;;;0.10;;
62353;SDS011;48391;49.184;2.418;2023-07-20T16:23:51;0.10;;;0.10;;
62353;SDS011;48391;49.184;2.418;2023-07-20T16:26:17;0.10;;;0.03;;
62353;SDS011;48391;49.184;2.418;2023-07-20T16:28:44;0.20;;;0.20;;
62353;SDS011;48391;49.184;2.418;2023-07-20T16:31:10;0.08;;;0.08;;
62353;SDS011;48391;49.184;2.418;2023-07-20T16:33:38;0.10;;;0.10;;
62353;SDS011;48391;49.184;2.418;2023-07-20T16:36:11;0.20;;;0.20;;
62353;SDS011;48391;49.184;2.418;2023-07-20T16:38:42;0.10;;;0.03;;
62353;SDS011;48391;49.184;2.418;2023-07-20T16:41:09;0.22;;;0.10;;
62353;SDS011;48391;49.184;2.418;2023-07-20T16:43:36;0.65;;;0.10;;
62353;SDS011;48391;49.184;2.418;2023-07-20T16:46:03;0.20;;;0.20;;
62353;SDS011;48391;49.184;2.418;2023-07-20T16:48:31;0.10;;;0.10;;
62353;SDS011;48391;49.184;2.418;2023-07-20T16:50:58;0.38;;;0.38;;
62353;SDS011;48391;49.184;2.418;2023-07-20T16:53:25;0.93;;;0.30;;
62353;SDS011;48391;49.184;2.418;2023-07-20T16:55:51;0.32;;;0.10;;
62353;SDS011;48391;49.184;2.418;2023-07-20T16:58:20;0.10;;;0.05;;
62353;SDS011;48391;49.184;2.418;2023-07-20T17:00:51;0.00;;;0.00;;
62353;SDS011;48391;49.184;2.418;2023-07-20T17:03:25;0.00;;;0.00;;
62353;SDS011;48391;49.184;2.418;2023-07-20T17:05:53;0.10;;;0.10;;
62353;SDS011;48391;49.184;2.418;2023-07-20T17:10:52;0.00;;;0.00;;
62353;SDS011;48391;49.184;2.418;2023-07-20T17:13:18;0.00;;;0.00;;
62353;SDS011;48391;49.184;2.418;2023-07-20T17:15:48;0.00;;;0.00;;
62353;SDS011;48391;49.184;2.418;2023-07-20T17:18:15;0.10;;;0.10;;
62353;SDS011;48391;49.184;2.418;2023-07-20T17:20:43;0.10;;;0.10;;
62353;SDS011;48391;49.184;2.418;2023-07-20T17:23:10;0.05;;;0.03;;
62353;SDS011;48391;49.184;2.418;2023-07-20T17:25:37;0.28;;;0.10;;
62353;SDS011;48391;49.184;2.418;2023-07-20T17:28:08;0.28;;;0.10;;
62353;SDS011;48391;49.184;2.418;2023-07-20T17:30:34;0.10;;;0.00;;
62353;SDS011;48391;49.184;2.418;2023-07-20T17:33:01;0.00;;;0.00;;
62353;SDS011;48391;49.184;2.418;2023-07-20T17:35:27;0.43;;;0.43;;
62353;SDS011;48391;49.184;2.418;2023-07-20T17:37:54;0.10;;;0.10;;
62353;SDS011;48391;49.184;2.418;2023-07-20T17:40:20;0.20;;;0.00;;
62353;SDS011;48391;49.184;2.418;2023-07-20T17:42:47;0.80;;;0.00;;
62353;SDS011;48391;49.184;2.418;2023-07-20T17:45:14;0.00;;;0.00;;
62353;SDS011;48391;49.184;2.418;2023-07-20T17:47:40;0.10;;;0.00;;
62353;SDS011;48391;49.184;2.418;2023-07-20T17:50:07;0.10;;;0.00;;
62353;SDS011;48391;49.184;2.418;2023-07-20T17:55:04;0.38;;;0.10;;
62353;SDS011;48391;49.184;2.418;2023-07-20T17:57:30;0.20;;;0.10;;
62353;SDS011;48391;49.184;2.418;2023-07-20T17:59:57;0.20;;;0.03;;
62353;SDS011;48391;49.184;2.418;2023-07-20T18:02:23;0.00;;;0.00;;
62353;SDS011;48391;49.184;2.418;2023-07-20T18:04:51;0.20;;;0.20;;
62353;SDS011;48391;49.184;2.418;2023-07-20T18:07:17;0.28;;;0.13;;
62353;SDS011;48391;49.184;2.418;2023-07-20T18:09:44;0.00;;;0.00;;
62353;SDS011;48391;49.184;2.418;2023-07-20T18:12:10;0.38;;;0.00;;
62353;SDS011;48391;49.184;2.418;2023-07-20T18:14:36;0.30;;;0.20;;
62353;SDS011;48391;49.184;2.418;2023-07-20T18:17:02;0.22;;;0.22;;
62353;SDS011;48391;49.184;2.418;2023-07-20T18:19:28;0.10;;;0.10;;
62353;SDS011;48391;49.184;2.418;2023-07-20T18:21:55;0.10;;;0.00;;
62353;SDS011;48391;49.184;2.418;2023-07-20T18:24:21;0.00;;;0.00;;
62353;SDS011;48391;49.184;2.418;2023-07-20T18:26:47;0.00;;;0.00;;
62353;SDS011;48391;49.184;2.418;2023-07-20T18:29:14;0.03;;;0.03;;
62353;SDS011;48391;49.184;2.418;2023-07-20T18:31:40;0.10;;;0.10;;
62353;SDS011;48391;49.184;2.418;2023-07-20T18:34:06;0.10;;;0.00;;
62353;SDS011;48391;49.184;2.418;2023-07-20T18:36:32;0.52;;;0.32;;
62353;SDS011;48391;49.184;2.418;2023-07-20T18:38:58;0.10;;;0.00;;
62353;SDS011;48391;49.184;2.418;2023-07-20T18:41:25;0.00;;;0.00;;
62353;SDS011;48391;49.184;2.418;2023-07-20T18:43:51;0.05;;;0.05;;
62353;SDS011;48391;49.184;2.418;2023-07-20T18:46:17;0.10;;;0.00;;
62353;SDS011;48391;49.184;2.418;2023-07-20T18:48:44;0.10;;;0.10;;
62353;SDS011;48391;49.184;2.418;2023-07-20T18:51:11;0.10;;;0.00;;
62353;SDS011;48391;49.184;2.418;2023-07-20T18:53:38;1.95;;;0.43;;
62353;SDS011;48391;49.184;2.418;2023-07-20T18:56:05;0.40;;;0.10;;
62353;SDS011;48391;49.184;2.418;2023-07-20T18:58:32;1.05;;;0.28;;
62353;SDS011;48391;49.184;2.418;2023-07-20T19:01:01;0.40;;;0.10;;
62353;SDS011;48391;49.184;2.418;2023-07-20T19:03:28;0.95;;;0.75;;
62353;SDS011;48391;49.184;2.418;2023-07-20T19:05:54;0.30;;;0.22;;
62353;SDS011;48391;49.184;2.418;2023-07-20T19:08:20;0.52;;;0.20;;
62353;SDS011;48391;49.184;2.418;2023-07-20T19:10:47;0.10;;;0.00;;
62353;SDS011;48391;49.184;2.418;2023-07-20T19:13:14;0.70;;;0.40;;
62353;SDS011;48391;49.184;2.418;2023-07-20T19:15:46;0.75;;;0.30;;
62353;SDS011;48391;49.184;2.418;2023-07-20T19:18:13;1.00;;;0.32;;
62353;SDS011;48391;49.184;2.418;2023-07-20T19:20:39;0.60;;;0.50;;
62353;SDS011;48391;49.184;2.418;2023-07-20T19:23:05;0.40;;;0.40;;